createdAt,value
2022-12-16T00:00:42.929Z,21.6
2022-12-16T00:01:45.520Z,21.5
2022-12-16T00:02:48.380Z,21.6
2022-12-16T00:03:51.757Z,21.5
2022-12-16T00:04:57.436Z,21.5
2022-12-16T00:05:59.646Z,21.6
2022-12-16T00:07:01.885Z,21.5
2022-12-16T00:08:04.449Z,21.5
2022-12-16T00:09:06.347Z,21.5
2022-12-16T00:10:09.222Z,21.5
2022-12-16T00:11:11.699Z,21.5
2022-12-16T00:12:14.188Z,21.7
2022-12-16T00:13:16.383Z,21.6
2022-12-16T00:14:18.866Z,21.6
2022-12-16T00:15:21.390Z,21.7
2022-12-16T00:16:23.650Z,21.6
2022-12-16T00:17:26.277Z,21.8
2022-12-16T00:18:28.775Z,21.6
2022-12-16T00:19:30.976Z,21.6
2022-12-16T00:20:32.923Z,21.7
2022-12-16T00:21:35.128Z,21.7
2022-12-16T00:22:37.357Z,21.6
2022-12-16T00:23:39.261Z,21.7
2022-12-16T00:24:41.737Z,21.7
2022-12-16T00:25:43.941Z,21.8
2022-12-16T00:26:46.419Z,21.7
2022-12-16T00:27:48.618Z,21.6
2022-12-16T00:28:54.861Z,21.8
2022-12-16T00:29:57.131Z,21.8
2022-12-16T00:30:59.650Z,21.8
2022-12-16T00:32:02.248Z,21.6
2022-12-16T00:33:05.338Z,21.8
2022-12-16T00:34:07.574Z,21.8
2022-12-16T00:35:10.447Z,21.8
2022-12-16T00:36:12.655Z,21.8
2022-12-16T00:37:14.862Z,21.8
2022-12-16T00:38:17.101Z,21.7
2022-12-16T00:39:19.324Z,21.9
2022-12-16T00:40:21.796Z,21.8
2022-12-16T00:41:24.297Z,21.9
2022-12-16T00:42:26.786Z,22
2022-12-16T00:43:28.867Z,22
2022-12-16T00:44:33.832Z,21.8
2022-12-16T00:45:36.368Z,22
2022-12-16T00:46:39.184Z,21.9
2022-12-16T00:47:43.861Z,21.8
2022-12-16T00:48:46.383Z,21.7
2022-12-16T00:49:48.914Z,21.8
2022-12-16T00:50:51.820Z,22
2022-12-16T00:51:57.398Z,21.8
2022-12-16T00:52:59.886Z,21.9
2022-12-16T00:54:02.119Z,21.9
2022-12-16T00:55:04.600Z,21.8
2022-12-16T00:56:07.092Z,21.9
2022-12-16T00:57:09.741Z,21.8
2022-12-16T00:58:12.223Z,21.9
2022-12-16T00:59:14.149Z,22
2022-12-16T01:00:16.629Z,21.9
2022-12-16T01:01:18.408Z,21.8
2022-12-16T01:02:22.139Z,21.9
2022-12-16T01:03:25.529Z,21.9
2022-12-16T01:04:28.373Z,21.9
2022-12-16T01:05:30.989Z,21.9
2022-12-16T01:06:33.466Z,21.9
2022-12-16T01:07:35.702Z,21.9
2022-12-16T01:08:37.912Z,22
2022-12-16T01:09:39.865Z,22
2022-12-16T01:10:42.071Z,22
2022-12-16T01:11:44.274Z,21.9
2022-12-16T01:12:46.753Z,21.9
2022-12-16T01:13:48.421Z,21.8
2022-12-16T01:14:52.416Z,21.9
2022-12-16T01:15:56.499Z,21.9
2022-12-16T01:16:59.351Z,21.9
2022-12-16T01:18:01.884Z,21.9
2022-12-16T01:19:03.789Z,22
2022-12-16T01:20:06.279Z,22
2022-12-16T01:21:08.793Z,22
2022-12-16T01:22:11.289Z,21.9
2022-12-16T01:23:13.518Z,22
2022-12-16T01:24:15.774Z,21.9
2022-12-16T01:25:18.345Z,21.9
2022-12-16T01:26:20.841Z,22
2022-12-16T01:27:23.331Z,22.1
2022-12-16T01:28:25.534Z,22
2022-12-16T01:29:28.004Z,21.9
2022-12-16T01:30:30.206Z,21.9
2022-12-16T01:31:32.783Z,22.1
2022-12-16T01:32:35.653Z,22
2022-12-16T01:33:37.604Z,22.3
2022-12-16T01:34:40.084Z,22.2
2022-12-16T01:35:57.953Z,21.9
2022-12-16T01:36:47.534Z,22
2022-12-16T01:37:50.993Z,22.1
2022-12-16T01:38:57.160Z,22.1
2022-12-16T01:39:59.388Z,21.8
2022-12-16T01:41:01.917Z,21.9
2022-12-16T01:42:03.823Z,21.9
2022-12-16T01:43:06.030Z,22
2022-12-16T01:44:08.981Z,22
2022-12-16T01:45:11.555Z,22.1
2022-12-16T01:46:13.826Z,22
2022-12-16T01:47:15.835Z,22
2022-12-16T01:48:18.312Z,22
2022-12-16T01:49:20.606Z,21.9
2022-12-16T01:50:23.013Z,21.9
2022-12-16T01:51:24.929Z,22.1
2022-12-16T01:52:27.417Z,22.1
2022-12-16T01:53:30.179Z,22.1
2022-12-16T01:54:35.171Z,22.2
2022-12-16T01:55:37.375Z,22.1
2022-12-16T01:56:39.946Z,22
2022-12-16T01:57:42.147Z,22
2022-12-16T01:58:44.364Z,22
2022-12-16T01:59:46.575Z,22.1
2022-12-16T02:00:49.085Z,22.2
2022-12-16T02:01:57.267Z,22.1
2022-12-16T02:03:00.927Z,22
2022-12-16T02:04:03.875Z,22.1
2022-12-16T02:05:06.140Z,22.2
2022-12-16T02:06:08.695Z,22.1
2022-12-16T02:07:11.182Z,22
2022-12-16T02:08:13.657Z,22.1
2022-12-16T02:09:16.173Z,22.2
2022-12-16T02:10:18.407Z,22.1
2022-12-16T02:11:20.966Z,22.1
2022-12-16T02:12:23.489Z,22.2
2022-12-16T02:13:25.971Z,22.1
2022-12-16T02:14:28.207Z,22.1
2022-12-16T02:15:30.685Z,22.3
2022-12-16T02:16:32.967Z,22.2
2022-12-16T02:17:35.270Z,22.2
2022-12-16T02:18:37.743Z,22.2
2022-12-16T02:19:40.267Z,22.2
2022-12-16T02:20:42.799Z,22.2
2022-12-16T02:21:45.275Z,22.3
2022-12-16T02:22:47.745Z,22.3
2022-12-16T02:23:50.262Z,22.2
2022-12-16T02:24:55.904Z,22.2
2022-12-16T02:25:58.117Z,22.1
2022-12-16T02:27:00.313Z,22.3
2022-12-16T02:28:02.235Z,22.3
2022-12-16T02:29:04.430Z,22.1
2022-12-16T02:30:06.645Z,22.2
2022-12-16T02:31:10.007Z,22.2
2022-12-16T02:32:12.956Z,22.2
2022-12-16T02:33:14.859Z,22.1
2022-12-16T02:34:17.337Z,22.2
2022-12-16T02:35:19.813Z,22.1
2022-12-16T02:36:22.137Z,22.2
2022-12-16T02:37:24.612Z,22.2
2022-12-16T02:38:26.809Z,22.1
2022-12-16T02:39:28.995Z,22
2022-12-16T02:40:31.527Z,22.1
2022-12-16T02:41:33.993Z,22
2022-12-16T02:42:36.200Z,22.3
2022-12-16T02:43:38.698Z,22.1
2022-12-16T02:44:41.187Z,22.2
2022-12-16T02:45:43.700Z,22.2
2022-12-16T02:46:46.176Z,22.3
2022-12-16T02:47:48.649Z,22.3
2022-12-16T02:48:50.834Z,22.2
2022-12-16T02:49:53.331Z,22.3
2022-12-16T02:50:55.812Z,22.2
2022-12-16T02:51:58.050Z,22.3
2022-12-16T02:53:00.532Z,22.3
2022-12-16T02:54:02.736Z,22.1
2022-12-16T02:55:04.940Z,22.1
2022-12-16T02:56:07.488Z,22.2
2022-12-16T02:57:09.975Z,22.2
2022-12-16T02:58:12.443Z,22.2
2022-12-16T02:59:14.381Z,22.2
2022-12-16T03:00:16.609Z,22.2
2022-12-16T03:01:18.886Z,22.2
2022-12-16T03:02:22.334Z,22.3
2022-12-16T03:03:26.071Z,22.2
2022-12-16T03:04:28.923Z,22.1
2022-12-16T03:05:31.437Z,22.3
2022-12-16T03:06:33.940Z,22.2
2022-12-16T03:07:36.468Z,22.2
2022-12-16T03:08:38.676Z,22.3
2022-12-16T03:09:41.193Z,22.3
2022-12-16T03:10:43.679Z,22.3
2022-12-16T03:11:46.198Z,22.2
2022-12-16T03:12:48.675Z,22.3
2022-12-16T03:13:50.861Z,22.3
2022-12-16T03:14:53.090Z,22.2
2022-12-16T03:15:55.576Z,22.3
2022-12-16T03:16:57.832Z,22.3
2022-12-16T03:18:00.852Z,22.3
2022-12-16T03:19:03.045Z,22.3
2022-12-16T03:20:05.514Z,22.2
2022-12-16T03:21:08.005Z,22.3
2022-12-16T03:22:10.224Z,22.3
2022-12-16T03:23:12.460Z,22.3
2022-12-16T03:24:14.388Z,22.2
2022-12-16T03:25:16.679Z,22.1
2022-12-16T03:26:18.859Z,22.2
2022-12-16T03:27:21.416Z,22.1
2022-12-16T03:28:23.896Z,22.2
2022-12-16T03:29:26.103Z,22.2
2022-12-16T03:30:28.649Z,22.2
2022-12-16T03:31:31.154Z,22.3
2022-12-16T03:32:33.084Z,22.3
2022-12-16T03:33:35.414Z,22.3
2022-12-16T03:34:37.941Z,22.3
2022-12-16T03:35:40.413Z,22.3
2022-12-16T03:36:42.351Z,22.3
2022-12-16T03:37:44.537Z,22.2
2022-12-16T03:38:47.093Z,22.3
2022-12-16T03:39:49.567Z,22.2
2022-12-16T03:40:52.051Z,22.3
2022-12-16T03:41:57.025Z,22.3
2022-12-16T03:42:59.584Z,22.5
2022-12-16T03:44:02.090Z,22.3
2022-12-16T03:45:04.575Z,22.4
2022-12-16T03:46:07.126Z,22.3
2022-12-16T03:47:10.064Z,22.3
2022-12-16T03:48:12.578Z,22.2
2022-12-16T03:49:14.788Z,22.2
2022-12-16T03:50:17.277Z,22.2
2022-12-16T03:51:19.754Z,22.3
2022-12-16T03:52:22.257Z,22.3
2022-12-16T03:53:24.444Z,22.2
2022-12-16T03:54:26.975Z,22.4
2022-12-16T03:55:29.462Z,22.2
2022-12-16T03:56:31.937Z,22.3
2022-12-16T03:57:34.144Z,22.4
2022-12-16T03:58:36.710Z,22.3
2022-12-16T03:59:38.913Z,22.2
2022-12-16T04:00:41.395Z,22.4
2022-12-16T04:01:43.475Z,22.3
2022-12-16T04:02:46.399Z,22.3
2022-12-16T04:03:50.143Z,22.3
2022-12-16T04:04:52.782Z,22.3
2022-12-16T04:05:55.002Z,22.4
2022-12-16T04:06:57.618Z,22.3
2022-12-16T04:08:02.139Z,22.4
2022-12-16T04:09:04.819Z,22.2
2022-12-16T04:10:07.350Z,22.3
2022-12-16T04:11:09.833Z,22.1
2022-12-16T04:12:12.304Z,22.3
2022-12-16T04:13:14.502Z,22.3
2022-12-16T04:14:16.791Z,22.3
2022-12-16T04:15:18.692Z,22.3
2022-12-16T04:16:20.721Z,22.2
2022-12-16T04:17:23.678Z,22.3
2022-12-16T04:18:26.157Z,22.2
2022-12-16T04:19:28.641Z,22.2
2022-12-16T04:20:30.857Z,22.1
2022-12-16T04:21:33.323Z,22.2
2022-12-16T04:22:35.549Z,22.3
2022-12-16T04:23:38.036Z,22.2
2022-12-16T04:24:40.245Z,22.2
2022-12-16T04:25:42.485Z,22.2
2022-12-16T04:26:44.777Z,22.2
2022-12-16T04:27:47.325Z,22.1
2022-12-16T04:28:49.828Z,22.2
2022-12-16T04:29:52.067Z,22.1
2022-12-16T04:30:54.660Z,22.1
2022-12-16T04:31:58.263Z,22
2022-12-16T04:33:00.222Z,22.1
2022-12-16T04:34:02.705Z,22.1
2022-12-16T04:35:04.982Z,22.1
2022-12-16T04:36:07.187Z,22.2
2022-12-16T04:37:09.666Z,22.1
2022-12-16T04:38:12.142Z,22.1
2022-12-16T04:39:14.649Z,22.1
2022-12-16T04:40:16.591Z,22.1
2022-12-16T04:41:19.112Z,22
2022-12-16T04:42:22.613Z,22.1
2022-12-16T04:43:25.819Z,21.9
2022-12-16T04:44:28.916Z,22
2022-12-16T04:45:31.797Z,22
2022-12-16T04:46:34.340Z,22.1
2022-12-16T04:47:37.046Z,22.1
2022-12-16T04:48:39.314Z,22.2
2022-12-16T04:49:41.216Z,22
2022-12-16T04:50:43.432Z,22
2022-12-16T04:51:45.916Z,22
2022-12-16T04:52:48.418Z,22
2022-12-16T04:53:50.372Z,22
2022-12-16T04:54:52.566Z,21.9
2022-12-16T04:55:57.955Z,22.1
2022-12-16T04:57:00.034Z,22.1
2022-12-16T04:58:02.640Z,21.8
2022-12-16T04:59:04.851Z,22
2022-12-16T05:00:07.337Z,22
2022-12-16T05:01:09.678Z,22
2022-12-16T05:02:12.768Z,21.8
2022-12-16T05:03:16.158Z,22
2022-12-16T05:04:18.971Z,21.9
2022-12-16T05:05:21.452Z,22
2022-12-16T05:06:23.980Z,22
2022-12-16T05:07:26.195Z,21.9
2022-12-16T05:08:29.781Z,21.9
2022-12-16T05:09:31.985Z,21.9
2022-12-16T05:10:34.463Z,21.9
2022-12-16T05:11:36.678Z,21.9
2022-12-16T05:12:39.149Z,21.8
2022-12-16T05:13:41.407Z,21.9
2022-12-16T05:14:43.888Z,21.9
2022-12-16T05:15:46.374Z,22
2022-12-16T05:16:49.246Z,21.8
2022-12-16T05:17:51.734Z,21.9
2022-12-16T05:18:54.222Z,21.9
2022-12-16T05:19:56.181Z,21.9
2022-12-16T05:20:58.657Z,22
2022-12-16T05:22:01.160Z,21.9
2022-12-16T05:23:03.663Z,21.9
2022-12-16T05:24:06.134Z,21.9
2022-12-16T05:25:08.339Z,21.9
2022-12-16T05:26:10.538Z,21.9
2022-12-16T05:27:12.167Z,21.9
2022-12-16T05:28:14.648Z,21.9
2022-12-16T05:29:17.161Z,21.8
2022-12-16T05:30:18.817Z,21.8
2022-12-16T05:31:21.327Z,21.7
2022-12-16T05:32:24.093Z,21.8
2022-12-16T05:33:26.587Z,21.8
2022-12-16T05:34:29.061Z,21.9
2022-12-16T05:35:31.290Z,21.8
2022-12-16T05:36:33.497Z,21.9
2022-12-16T05:37:35.979Z,21.7
2022-12-16T05:38:38.169Z,21.8
2022-12-16T05:39:40.383Z,21.8
2022-12-16T05:40:42.585Z,21.8
2022-12-16T05:41:45.064Z,21.8
2022-12-16T05:42:47.246Z,21.8
2022-12-16T05:43:49.726Z,21.8
2022-12-16T05:44:52.006Z,21.8
2022-12-16T05:45:54.537Z,21.8
2022-12-16T05:46:57.476Z,21.9
2022-12-16T05:48:01.025Z,21.8
2022-12-16T05:49:02.939Z,21.9
2022-12-16T05:50:04.556Z,21.8
2022-12-16T05:51:06.516Z,21.9
2022-12-16T05:52:09.004Z,21.9
2022-12-16T05:53:10.920Z,21.8
2022-12-16T05:54:13.394Z,21.8
2022-12-16T05:55:15.619Z,21.9
2022-12-16T05:56:18.292Z,21.8
2022-12-16T05:57:20.230Z,21.8
2022-12-16T05:58:22.425Z,21.9
2022-12-16T05:59:24.919Z,21.7
2022-12-16T06:00:27.431Z,21.8
2022-12-16T06:01:29.425Z,21.8
2022-12-16T06:02:32.611Z,21.8
2022-12-16T06:03:36.551Z,21.7
2022-12-16T06:04:41.095Z,21.9
2022-12-16T06:05:43.305Z,21.9
2022-12-16T06:06:45.815Z,21.7
2022-12-16T06:07:48.295Z,21.7
2022-12-16T06:08:50.487Z,21.7
2022-12-16T06:09:56.500Z,21.8
2022-12-16T06:10:57.401Z,21.9
2022-12-16T06:11:59.615Z,21.8
2022-12-16T06:13:01.789Z,21.9
2022-12-16T06:14:04.279Z,21.9
2022-12-16T06:15:06.761Z,21.8
2022-12-16T06:16:09.513Z,21.7
2022-12-16T06:17:12.139Z,21.9
2022-12-16T06:18:14.694Z,21.9
2022-12-16T06:19:17.234Z,21.7
2022-12-16T06:20:19.719Z,21.8
2022-12-16T06:21:21.947Z,21.8
2022-12-16T06:22:24.459Z,21.8
2022-12-16T06:23:26.657Z,21.8
2022-12-16T06:24:29.213Z,21.7
2022-12-16T06:25:31.700Z,21.8
2022-12-16T06:26:34.179Z,21.7
2022-12-16T06:27:36.669Z,21.7
2022-12-16T06:28:42.018Z,21.7
2022-12-16T06:29:43.863Z,21.6
2022-12-16T06:30:46.373Z,21.7
2022-12-16T06:31:48.782Z,21.8
2022-12-16T06:32:51.170Z,21.6
2022-12-16T06:33:55.039Z,21.8
2022-12-16T06:34:57.734Z,21.6
2022-12-16T06:35:59.937Z,21.6
2022-12-16T06:37:02.423Z,21.8
2022-12-16T06:38:04.675Z,21.7
2022-12-16T06:39:07.165Z,21.8
2022-12-16T06:40:09.652Z,21.7
2022-12-16T06:41:12.138Z,21.7
2022-12-16T06:42:14.642Z,21.6
2022-12-16T06:43:17.123Z,21.6
2022-12-16T06:44:19.337Z,21.6
2022-12-16T06:45:21.818Z,21.6
2022-12-16T06:46:24.193Z,21.6
2022-12-16T06:47:26.632Z,21.8
2022-12-16T06:48:29.116Z,21.8
2022-12-16T06:49:31.597Z,21.7
2022-12-16T06:50:34.111Z,21.7
2022-12-16T06:51:36.323Z,21.8
2022-12-16T06:52:38.798Z,21.6
2022-12-16T06:53:41.120Z,21.7
2022-12-16T06:54:43.619Z,21.6
2022-12-16T06:55:46.101Z,21.6
2022-12-16T06:56:48.024Z,21.6
2022-12-16T06:57:50.234Z,21.7
2022-12-16T06:58:52.426Z,21.7
2022-12-16T06:59:54.654Z,21.7
2022-12-16T07:00:57.198Z,21.7
2022-12-16T07:01:59.871Z,21.6
2022-12-16T07:03:04.702Z,21.6
2022-12-16T07:04:07.647Z,21.6
2022-12-16T07:05:10.135Z,21.6
2022-12-16T07:06:12.649Z,21.7
2022-12-16T07:07:14.572Z,21.7
2022-12-16T07:08:17.052Z,21.6
2022-12-16T07:09:19.554Z,21.6
2022-12-16T07:10:22.031Z,21.6
2022-12-16T07:11:24.510Z,21.7
2022-12-16T07:12:26.644Z,21.6
2022-12-16T07:13:29.261Z,21.6
2022-12-16T07:14:33.723Z,21.6
2022-12-16T07:15:36.207Z,21.6
2022-12-16T07:16:38.726Z,21.6
2022-12-16T07:17:41.394Z,21.7
2022-12-16T07:18:43.658Z,21.6
2022-12-16T07:19:46.135Z,21.7
2022-12-16T07:20:48.655Z,21.6
2022-12-16T07:21:56.208Z,21.7
2022-12-16T07:23:04.239Z,21.6
2022-12-16T07:24:03.124Z,21.6
2022-12-16T07:25:05.373Z,21.7
2022-12-16T07:26:07.581Z,21.7
2022-12-16T07:27:10.078Z,21.7
2022-12-16T07:28:15.417Z,21.6
2022-12-16T07:29:17.008Z,21.7
2022-12-16T07:30:19.515Z,21.7
2022-12-16T07:31:21.749Z,21.6
2022-12-16T07:32:24.058Z,21.6
2022-12-16T07:33:26.248Z,21.7
2022-12-16T07:34:28.935Z,21.7
2022-12-16T07:35:38.033Z,21.5
2022-12-16T07:36:40.241Z,21.7
2022-12-16T07:37:42.903Z,21.7
2022-12-16T07:38:45.145Z,21.6
2022-12-16T07:39:51.388Z,21.6
2022-12-16T07:40:52.352Z,21.6
2022-12-16T07:41:55.831Z,21.5
2022-12-16T07:42:58.094Z,21.6
2022-12-16T07:44:00.613Z,21.5
2022-12-16T07:45:03.092Z,21.7
2022-12-16T07:46:05.095Z,21.5
2022-12-16T07:47:08.017Z,21.7
2022-12-16T07:48:10.917Z,21.7
2022-12-16T07:49:13.144Z,21.6
2022-12-16T07:50:15.670Z,21.6
2022-12-16T07:51:16.775Z,21.6
2022-12-16T07:52:18.972Z,21.5
2022-12-16T07:53:22.322Z,21.5
2022-12-16T07:54:27.809Z,21.6
2022-12-16T07:55:30.294Z,21.6
2022-12-16T07:56:32.876Z,21.6
2022-12-16T07:57:35.363Z,21.6
2022-12-16T07:58:37.578Z,21.6
2022-12-16T07:59:40.087Z,21.6
2022-12-16T08:00:42.298Z,21.7
2022-12-16T08:01:44.931Z,21.5
2022-12-16T08:02:48.093Z,21.4
2022-12-16T08:03:52.088Z,21.5
2022-12-16T08:04:56.449Z,21.5
2022-12-16T08:05:58.985Z,21.6
2022-12-16T08:07:01.179Z,21.6
2022-12-16T08:08:03.388Z,21.6
2022-12-16T08:09:05.845Z,21.5
2022-12-16T08:10:08.328Z,21.5
2022-12-16T08:11:10.626Z,21.5
2022-12-16T08:12:13.010Z,21.6
2022-12-16T08:13:15.416Z,21.5
2022-12-16T08:14:21.630Z,21.7
2022-12-16T08:15:23.295Z,21.5
2022-12-16T08:16:25.833Z,21.5
2022-12-16T08:17:28.434Z,21.7
2022-12-16T08:18:30.089Z,21.5
2022-12-16T08:19:32.307Z,21.4
2022-12-16T08:20:34.217Z,21.6
2022-12-16T08:21:36.841Z,21.6
2022-12-16T08:22:39.325Z,21.5
2022-12-16T08:23:41.542Z,21.6
2022-12-16T08:24:49.651Z,21.6
2022-12-16T08:25:49.090Z,21.4
2022-12-16T08:26:51.812Z,21.5
2022-12-16T08:27:56.941Z,21.6
2022-12-16T08:29:02.120Z,21.5
2022-12-16T08:30:04.142Z,21.6
2022-12-16T08:31:06.446Z,21.5
2022-12-16T08:32:09.928Z,21.6
2022-12-16T08:33:18.670Z,21.4
2022-12-16T08:34:16.852Z,21.6
2022-12-16T08:35:19.361Z,21.4
2022-12-16T08:36:21.873Z,21.7
2022-12-16T08:37:24.188Z,21.5
2022-12-16T08:38:26.675Z,21.6
2022-12-16T08:39:29.169Z,21.5
2022-12-16T08:40:35.926Z,21.5
2022-12-16T08:41:36.133Z,21.5
2022-12-16T08:42:38.625Z,21.4
2022-12-16T08:43:41.144Z,21.5
2022-12-16T08:44:43.353Z,21.6
2022-12-16T08:45:46.031Z,21.4
2022-12-16T08:46:48.829Z,21.4
2022-12-16T08:47:50.762Z,21.6
2022-12-16T08:48:53.499Z,21.5
2022-12-16T08:49:59.738Z,21.6
2022-12-16T08:51:02.873Z,21.6
2022-12-16T08:52:05.364Z,21.5
2022-12-16T08:53:07.898Z,21.5
2022-12-16T08:54:10.383Z,21.6
2022-12-16T08:55:12.325Z,21.6
2022-12-16T08:56:14.892Z,21.5
2022-12-16T08:57:16.561Z,21.5
2022-12-16T08:58:19.424Z,21.4
2022-12-16T08:59:21.645Z,21.6
2022-12-16T09:00:24.174Z,21.6
2022-12-16T09:01:26.642Z,21.3
2022-12-16T09:02:30.104Z,21.5
2022-12-16T09:03:34.153Z,21.5
2022-12-16T09:04:39.797Z,21.5
2022-12-16T09:05:42.282Z,21.6
2022-12-16T09:06:44.510Z,21.5
2022-12-16T09:07:47.004Z,21.6
2022-12-16T09:08:49.557Z,21.4
2022-12-16T09:09:51.909Z,21.4
2022-12-16T09:10:55.104Z,21.5
2022-12-16T09:11:57.314Z,21.5
2022-12-16T09:12:59.807Z,21.6
2022-12-16T09:14:02.278Z,21.5
2022-12-16T09:15:04.560Z,21.4
2022-12-16T09:16:07.087Z,21.5
2022-12-16T09:17:14.844Z,21.5
2022-12-16T09:18:17.327Z,21.5
2022-12-16T09:19:19.609Z,21.4
2022-12-16T09:20:22.100Z,21.5
2022-12-16T09:21:26.594Z,21.5
2022-12-16T09:22:29.242Z,21.6
2022-12-16T09:23:31.990Z,21.4
2022-12-16T09:24:36.870Z,21.4
2022-12-16T09:25:39.065Z,21.5
2022-12-16T09:26:41.083Z,21.4
2022-12-16T09:27:44.440Z,21.4
2022-12-16T09:28:46.934Z,21.5
2022-12-16T09:29:49.448Z,21.4
2022-12-16T09:30:51.755Z,21.4
2022-12-16T09:31:58.059Z,21.6
2022-12-16T09:32:59.703Z,21.5
2022-12-16T09:34:01.655Z,21.6
2022-12-16T09:35:05.248Z,21.4
2022-12-16T09:36:08.017Z,21.5
2022-12-16T09:37:10.253Z,21.5
2022-12-16T09:38:12.734Z,21.5
2022-12-16T09:39:15.270Z,21.4
2022-12-16T09:40:17.516Z,21.5
2022-12-16T09:41:19.747Z,21.6
2022-12-16T09:42:22.232Z,21.5
2022-12-16T09:43:24.521Z,21.6
2022-12-16T09:44:27.135Z,21.4
2022-12-16T09:45:29.845Z,21.5
2022-12-16T09:46:32.113Z,21.4
2022-12-16T09:47:34.876Z,21.5
2022-12-16T09:48:37.077Z,21.5
2022-12-16T09:49:38.995Z,21.4
2022-12-16T09:50:41.230Z,21.6
2022-12-16T09:51:43.729Z,21.5
2022-12-16T09:52:45.950Z,21.5
2022-12-16T09:53:48.155Z,21.5
2022-12-16T09:54:50.549Z,21.4
2022-12-16T09:55:56.316Z,21.5
2022-12-16T09:56:58.538Z,21.5
2022-12-16T09:58:01.022Z,21.5
2022-12-16T09:59:03.311Z,21.4
2022-12-16T10:00:05.808Z,21.4
2022-12-16T10:01:08.607Z,21.3
2022-12-16T10:02:11.268Z,21.5
2022-12-16T10:03:14.942Z,21.4
2022-12-16T10:04:18.873Z,21.4
2022-12-16T10:05:21.716Z,21.4
2022-12-16T10:06:24.208Z,21.4
2022-12-16T10:07:26.832Z,21.5
2022-12-16T10:08:28.771Z,21.4
2022-12-16T10:09:30.733Z,21.4
2022-12-16T10:10:32.937Z,21.4
2022-12-16T10:11:35.471Z,21.5
2022-12-16T10:12:37.955Z,21.5
2022-12-16T10:13:40.167Z,21.5
2022-12-16T10:14:42.792Z,21.4
2022-12-16T10:15:45.350Z,21.5
2022-12-16T10:16:48.243Z,21.6
2022-12-16T10:17:50.831Z,21.5
2022-12-16T10:18:56.271Z,21.4
2022-12-16T10:19:58.803Z,21.6
2022-12-16T10:21:05.967Z,21.5
2022-12-16T10:22:08.165Z,21.5
2022-12-16T10:23:10.823Z,21.5
2022-12-16T10:24:12.754Z,21.5
2022-12-16T10:25:18.079Z,21.6
2022-12-16T10:26:20.220Z,21.5
2022-12-16T10:27:22.523Z,21.5
2022-12-16T10:28:24.850Z,21.6
2022-12-16T10:29:27.370Z,21.6
2022-12-16T10:30:29.935Z,21.4
2022-12-16T10:31:32.247Z,21.5
2022-12-16T10:32:35.137Z,21.4
2022-12-16T10:33:37.450Z,21.5
2022-12-16T10:34:39.721Z,21.6
2022-12-16T10:35:41.661Z,21.5
2022-12-16T10:36:43.608Z,21.5
2022-12-16T10:37:46.090Z,21.5
2022-12-16T10:38:48.584Z,21.6
2022-12-16T10:39:53.277Z,21.5
2022-12-16T10:40:57.804Z,21.5
2022-12-16T10:42:00.017Z,21.6
2022-12-16T10:43:02.540Z,21.4
2022-12-16T10:44:04.461Z,21.5
2022-12-16T10:45:07.146Z,21.5
2022-12-16T10:46:10.556Z,21.6
2022-12-16T10:47:13.544Z,21.5
2022-12-16T10:48:16.086Z,21.5
2022-12-16T10:49:18.647Z,21.5
2022-12-16T10:50:21.204Z,21.4
2022-12-16T10:51:23.416Z,21.4
2022-12-16T10:52:25.905Z,21.6
2022-12-16T10:53:28.396Z,21.4
2022-12-16T10:54:31.168Z,21.5
2022-12-16T10:55:33.662Z,21.5
2022-12-16T10:56:35.604Z,21.5
2022-12-16T10:57:37.819Z,21.6
2022-12-16T10:58:40.549Z,21.4
2022-12-16T10:59:42.194Z,21.4
2022-12-16T11:00:44.386Z,21.5
2022-12-16T11:01:47.105Z,21.3
2022-12-16T11:02:50.653Z,21.5
2022-12-16T11:03:54.586Z,21.6
2022-12-16T11:04:57.807Z,21.5
2022-12-16T11:06:00.292Z,21.5
2022-12-16T11:07:02.521Z,21.5
2022-12-16T11:08:05.018Z,21.5
2022-12-16T11:09:07.234Z,21.5
2022-12-16T11:10:09.187Z,21.4
2022-12-16T11:11:11.456Z,21.5
2022-12-16T11:12:13.931Z,21.5
2022-12-16T11:13:16.151Z,21.6
2022-12-16T11:14:18.682Z,21.4
2022-12-16T11:15:28.943Z,21.5
2022-12-16T11:16:25.673Z,21.6
2022-12-16T11:17:28.441Z,21.6
2022-12-16T11:18:30.918Z,21.5
2022-12-16T11:19:33.158Z,21.7
2022-12-16T11:20:35.704Z,21.5
2022-12-16T11:21:38.196Z,21.6
2022-12-16T11:22:40.124Z,21.5
2022-12-16T11:23:42.346Z,21.5
2022-12-16T11:24:43.441Z,21.5
2022-12-16T11:25:45.648Z,21.6
2022-12-16T11:26:48.140Z,21.5
2022-12-16T11:27:50.625Z,21.5
2022-12-16T11:28:52.833Z,21.6
2022-12-16T11:29:56.397Z,21.4
2022-12-16T11:30:58.645Z,21.5
2022-12-16T11:32:01.872Z,21.6
2022-12-16T11:33:04.689Z,21.6
2022-12-16T11:34:07.192Z,21.6
2022-12-16T11:35:09.971Z,21.6
2022-12-16T11:36:12.641Z,21.5
2022-12-16T11:37:18.131Z,21.5
2022-12-16T11:38:20.110Z,21.6
2022-12-16T11:39:22.321Z,21.6
2022-12-16T11:40:24.270Z,21.6
2022-12-16T11:41:26.483Z,21.6
2022-12-16T11:42:28.428Z,21.5
2022-12-16T11:43:31.271Z,21.5
2022-12-16T11:44:35.825Z,21.6
2022-12-16T11:45:38.362Z,21.6
2022-12-16T11:46:40.657Z,21.6
2022-12-16T11:47:43.352Z,21.7
2022-12-16T11:48:45.598Z,21.5
2022-12-16T11:49:47.815Z,21.6
2022-12-16T11:50:50.316Z,21.6
2022-12-16T11:52:03.831Z,21.5
2022-12-16T11:53:01.477Z,21.6
2022-12-16T11:54:03.959Z,21.6
2022-12-16T11:55:06.575Z,21.7
2022-12-16T11:56:15.625Z,21.6
2022-12-16T11:57:14.968Z,21.5
2022-12-16T11:58:17.209Z,21.6
2022-12-16T11:59:19.134Z,21.5
2022-12-16T12:00:21.628Z,21.5
2022-12-16T12:01:24.187Z,21.6
2022-12-16T12:02:26.949Z,21.7
2022-12-16T12:03:29.309Z,21.6
2022-12-16T12:04:34.499Z,21.5
2022-12-16T12:05:37.215Z,21.6
2022-12-16T12:06:39.438Z,21.7
2022-12-16T12:07:45.207Z,21.7
2022-12-16T12:08:46.898Z,21.5
2022-12-16T12:09:49.006Z,21.6
2022-12-16T12:10:52.223Z,21.6
2022-12-16T12:11:58.538Z,21.7
2022-12-16T12:13:01.042Z,21.7
2022-12-16T12:14:03.246Z,21.6
2022-12-16T12:15:05.490Z,21.7
2022-12-16T12:16:07.805Z,21.7
2022-12-16T12:17:11.069Z,21.6
2022-12-16T12:18:13.386Z,21.7
2022-12-16T12:19:15.885Z,21.6
2022-12-16T12:20:18.172Z,21.7
2022-12-16T12:21:20.655Z,21.6
2022-12-16T12:22:22.887Z,21.5
2022-12-16T12:23:25.498Z,21.7
2022-12-16T12:24:27.725Z,21.6
2022-12-16T12:25:29.924Z,21.5
2022-12-16T12:26:32.129Z,21.6
2022-12-16T12:27:34.071Z,21.6
2022-12-16T12:28:36.552Z,21.6
2022-12-16T12:29:39.038Z,21.5
2022-12-16T12:30:41.229Z,21.6
2022-12-16T12:31:43.471Z,21.6
2022-12-16T12:32:46.444Z,21.5
2022-12-16T12:33:48.806Z,21.4
2022-12-16T12:34:51.828Z,21.7
2022-12-16T12:35:57.036Z,21.6
2022-12-16T12:36:59.519Z,21.5
2022-12-16T12:38:01.754Z,21.6
2022-12-16T12:39:04.266Z,21.5
2022-12-16T12:40:06.748Z,21.4
2022-12-16T12:41:09.818Z,21.5
2022-12-16T12:42:11.765Z,21.5
2022-12-16T12:43:13.989Z,21.7
2022-12-16T12:44:15.936Z,21.5
2022-12-16T12:45:18.145Z,21.6
2022-12-16T12:46:20.479Z,21.5
2022-12-16T12:47:22.957Z,21.5
2022-12-16T12:48:25.199Z,21.6
2022-12-16T12:49:27.430Z,21.7
2022-12-16T12:50:29.372Z,21.6
2022-12-16T12:51:31.970Z,21.5
2022-12-16T12:52:33.647Z,21.4
2022-12-16T12:53:36.613Z,21.5
2022-12-16T12:54:38.289Z,21.7
2022-12-16T12:55:40.780Z,21.6
2022-12-16T12:56:43.271Z,21.5
2022-12-16T12:57:44.905Z,21.5
2022-12-16T12:58:46.830Z,21.6
2022-12-16T12:59:49.056Z,21.6
2022-12-16T13:00:56.690Z,21.5
2022-12-16T13:01:59.586Z,21.6
2022-12-16T13:03:03.561Z,21.6
2022-12-16T13:04:07.092Z,21.6
2022-12-16T13:05:10.605Z,21.6
2022-12-16T13:06:12.833Z,21.6
2022-12-16T13:07:14.819Z,21.5
2022-12-16T13:08:17.520Z,21.5
2022-12-16T13:09:19.708Z,21.5
2022-12-16T13:10:22.223Z,21.6
2022-12-16T13:11:26.790Z,21.4
2022-12-16T13:12:29.824Z,21.5
2022-12-16T13:13:32.090Z,21.4
2022-12-16T13:14:37.543Z,21.7
2022-12-16T13:15:40.056Z,21.6
2022-12-16T13:16:42.277Z,21.6
2022-12-16T13:17:44.565Z,21.6
2022-12-16T13:18:46.486Z,21.6
2022-12-16T13:19:49.239Z,21.5
2022-12-16T13:20:51.626Z,21.6
2022-12-16T13:21:59.123Z,21.7
2022-12-16T13:23:01.350Z,21.5
2022-12-16T13:24:03.654Z,21.5
2022-12-16T13:25:05.685Z,21.5
2022-12-16T13:26:07.737Z,21.6
2022-12-16T13:27:10.232Z,21.6
2022-12-16T13:28:12.424Z,21.4
2022-12-16T13:29:14.651Z,21.7
2022-12-16T13:30:16.870Z,21.5
2022-12-16T13:31:24.791Z,21.6
2022-12-16T13:32:24.060Z,21.7
2022-12-16T13:33:26.005Z,21.7
2022-12-16T13:34:28.215Z,21.6
2022-12-16T13:35:30.487Z,21.5
2022-12-16T13:36:32.704Z,21.6
2022-12-16T13:37:34.930Z,21.5
2022-12-16T13:38:37.023Z,21.6
2022-12-16T13:39:39.234Z,21.6
2022-12-16T13:40:41.750Z,21.7
2022-12-16T13:41:44.110Z,21.7
2022-12-16T13:42:45.782Z,21.6
2022-12-16T13:43:47.718Z,21.6
2022-12-16T13:44:50.200Z,21.6
2022-12-16T13:45:52.487Z,21.6
2022-12-16T13:46:55.531Z,21.6
2022-12-16T13:47:58.047Z,21.6
2022-12-16T13:49:00.013Z,21.6
2022-12-16T13:50:02.227Z,21.6
2022-12-16T13:51:04.802Z,21.8
2022-12-16T13:52:07.002Z,21.6
2022-12-16T13:53:08.929Z,21.7
2022-12-16T13:54:11.195Z,21.7
2022-12-16T13:55:13.675Z,21.7
2022-12-16T13:56:21.438Z,21.6
2022-12-16T13:57:23.735Z,21.8